createdAt,value
2018-08-31T00:02:23.483Z,57.49
2018-08-31T00:05:00.543Z,57.84
2018-08-31T00:07:53.484Z,58.01
2018-08-31T00:10:20.926Z,58.16
2018-08-31T00:12:48.350Z,58.20
2018-08-31T00:15:15.743Z,58.59
2018-08-31T00:17:43.144Z,58.78
2018-08-31T00:20:10.559Z,59.00
2018-08-31T00:22:37.965Z,59.20
2018-08-31T00:25:05.427Z,59.13
2018-08-31T00:27:44.695Z,59.49
2018-08-31T00:33:15.465Z,59.01
2018-08-31T00:35:42.882Z,58.82
2018-08-31T00:38:10.266Z,58.91
2018-08-31T00:40:37.683Z,58.48
2018-08-31T00:43:05.150Z,58.46
2018-08-31T00:45:32.557Z,59.13
2018-08-31T00:48:00.024Z,59.51
2018-08-31T00:50:27.442Z,59.49
2018-08-31T00:52:54.883Z,58.99
2018-08-31T00:55:22.339Z,59.38
2018-08-31T00:57:49.761Z,59.13
2018-08-31T01:00:17.151Z,58.75
2018-08-31T01:02:44.583Z,59.01
2018-08-31T01:05:11.973Z,59.26
2018-08-31T01:07:39.419Z,59.65
2018-08-31T01:10:06.851Z,59.92
2018-08-31T01:12:34.287Z,59.92
2018-08-31T01:15:01.695Z,60.22
2018-08-31T01:17:29.137Z,60.31
2018-08-31T01:19:56.538Z,60.41
2018-08-31T01:22:23.958Z,60.45
2018-08-31T01:24:51.481Z,60.66
2018-08-31T01:27:18.881Z,61.01
2018-08-31T01:29:46.362Z,61.13
2018-08-31T01:32:13.800Z,61.51
2018-08-31T01:34:41.240Z,61.80
2018-08-31T01:37:08.633Z,61.83
2018-08-31T01:39:36.040Z,61.74
2018-08-31T01:42:03.450Z,62.01
2018-08-31T01:44:30.883Z,62.34
2018-08-31T01:46:58.279Z,62.58
2018-08-31T01:49:25.683Z,62.87
2018-08-31T01:51:53.495Z,63.28
2018-08-31T01:54:20.925Z,63.81
2018-08-31T01:56:48.335Z,63.70
2018-08-31T01:59:15.795Z,63.21
2018-08-31T02:01:43.234Z,62.91
2018-08-31T02:04:10.720Z,62.64
2018-08-31T02:06:38.082Z,62.58
2018-08-31T02:09:05.510Z,62.38
2018-08-31T02:11:32.930Z,62.54
2018-08-31T02:14:00.709Z,62.33
2018-08-31T02:16:28.113Z,61.80
2018-08-31T02:18:55.536Z,61.59
2018-08-31T02:21:22.944Z,61.65
2018-08-31T02:23:50.373Z,61.54
2018-08-31T02:26:17.775Z,61.59
2018-08-31T02:28:45.187Z,61.13
2018-08-31T02:31:12.652Z,61.14
2018-08-31T02:33:40.132Z,61.14
2018-08-31T02:36:07.573Z,61.20
2018-08-31T02:38:34.974Z,61.67
2018-08-31T02:41:02.413Z,62.12
2018-08-31T02:43:29.857Z,62.38
2018-08-31T02:45:57.288Z,62.91
2018-08-31T02:48:24.898Z,63.04
2018-08-31T02:50:52.363Z,62.55
2018-08-31T02:53:19.832Z,62.35
2018-08-31T02:55:47.292Z,62.24
2018-08-31T02:58:15.024Z,62.38
2018-08-31T03:00:42.498Z,61.76
2018-08-31T03:03:09.976Z,61.59
2018-08-31T03:05:37.704Z,61.65
2018-08-31T03:08:05.148Z,61.57
2018-08-31T03:10:32.553Z,61.78
2018-08-31T03:13:00.228Z,61.54
2018-08-31T03:15:27.698Z,61.28
2018-08-31T03:17:55.107Z,61.27
2018-08-31T03:20:22.723Z,61.59
2018-08-31T03:22:50.195Z,61.59
2018-08-31T03:25:17.786Z,61.39
2018-08-31T03:27:45.225Z,61.10
2018-08-31T03:30:12.729Z,61.38
2018-08-31T03:32:40.206Z,61.86
2018-08-31T03:35:07.701Z,61.89
2018-08-31T03:37:35.145Z,62.09
2018-08-31T03:40:02.573Z,62.16
2018-08-31T03:42:30.072Z,62.31
2018-08-31T03:44:57.528Z,62.59
2018-08-31T03:47:24.976Z,62.90
2018-08-31T03:49:52.422Z,63.08
2018-08-31T03:52:19.865Z,62.91
2018-08-31T03:54:47.303Z,62.93
2018-08-31T03:57:14.788Z,62.77
2018-08-31T03:59:42.253Z,63.15
2018-08-31T04:02:09.639Z,63.07
2018-08-31T04:04:37.585Z,62.74
2018-08-31T04:07:05.027Z,62.23
2018-08-31T04:09:33.304Z,62.53
2018-08-31T04:12:00.756Z,62.81
2018-08-31T04:14:28.153Z,62.63
2018-08-31T04:16:55.606Z,62.67
2018-08-31T04:19:23.025Z,62.89
2018-08-31T04:21:50.469Z,63.52
2018-08-31T04:24:17.895Z,63.46
2018-08-31T04:26:45.380Z,63.58
2018-08-31T04:29:12.787Z,63.71
2018-08-31T04:31:40.211Z,63.72
2018-08-31T04:34:07.709Z,63.69
2018-08-31T04:36:35.172Z,63.57
2018-08-31T04:39:02.606Z,63.36
2018-08-31T04:41:30.066Z,63.30
2018-08-31T04:43:57.501Z,63.23
2018-08-31T04:46:25.542Z,63.11
2018-08-31T04:48:53.011Z,62.85
2018-08-31T04:51:20.444Z,63.11
2018-08-31T04:53:47.839Z,63.26
2018-08-31T04:56:15.238Z,63.27
2018-08-31T04:58:42.749Z,63.25
2018-08-31T05:01:10.130Z,63.29
2018-08-31T05:03:37.574Z,63.26
2018-08-31T05:06:05.033Z,63.27
2018-08-31T05:08:32.491Z,63.27
2018-08-31T05:11:00.059Z,63.04
2018-08-31T05:13:27.523Z,63.39
2018-08-31T05:15:54.931Z,63.43
2018-08-31T05:18:22.335Z,63.19
2018-08-31T05:20:49.826Z,62.82
2018-08-31T05:23:17.333Z,62.76
2018-08-31T05:25:44.808Z,62.40
2018-08-31T05:28:13.102Z,62.11
2018-08-31T05:30:40.547Z,62.24
2018-08-31T05:33:07.983Z,62.61
2018-08-31T05:35:35.392Z,62.71
2018-08-31T05:38:03.064Z,62.77
2018-08-31T05:40:30.468Z,62.93
2018-08-31T05:42:57.933Z,62.89
2018-08-31T05:45:25.402Z,62.69
2018-08-31T05:47:52.896Z,62.92
2018-08-31T05:50:20.374Z,63.28
2018-08-31T05:52:47.996Z,63.39
2018-08-31T05:55:15.439Z,63.46
2018-08-31T05:57:42.878Z,63.68
2018-08-31T06:00:10.305Z,63.66
2018-08-31T06:02:37.731Z,63.56
2018-08-31T06:05:05.235Z,63.56
2018-08-31T06:07:32.712Z,63.38
2018-08-31T06:10:00.225Z,63.13
2018-08-31T06:12:27.684Z,62.82
2018-08-31T06:14:55.115Z,63.37
2018-08-31T06:17:22.526Z,63.20
2018-08-31T06:19:49.963Z,62.68
2018-08-31T06:22:17.409Z,62.68
2018-08-31T06:24:44.845Z,62.75
2018-08-31T06:27:12.380Z,62.51
2018-08-31T06:29:39.712Z,62.09
2018-08-31T06:32:07.217Z,61.73
2018-08-31T06:34:34.681Z,61.59
2018-08-31T06:37:02.162Z,61.09
2018-08-31T06:39:29.566Z,61.12
2018-08-31T06:41:57.021Z,60.84
2018-08-31T06:44:24.528Z,60.81
2018-08-31T06:46:51.970Z,60.42
2018-08-31T06:49:19.409Z,60.10
2018-08-31T06:51:46.961Z,59.93
2018-08-31T06:54:14.556Z,59.32
2018-08-31T06:56:41.946Z,58.96
2018-08-31T06:59:09.493Z,58.69
2018-08-31T07:01:37.075Z,58.28
2018-08-31T07:04:04.532Z,57.91
2018-08-31T07:06:32.029Z,57.44
2018-08-31T07:08:59.729Z,57.08
2018-08-31T07:11:27.802Z,56.63
2018-08-31T07:13:55.266Z,56.45
2018-08-31T07:16:22.710Z,56.60
2018-08-31T07:18:50.184Z,56.53
2018-08-31T07:21:17.609Z,56.59
2018-08-31T07:23:45.193Z,56.61
2018-08-31T07:26:12.779Z,56.59
2018-08-31T07:28:40.208Z,56.59
2018-08-31T07:31:07.651Z,56.46
2018-08-31T07:33:35.066Z,56.28
2018-08-31T07:36:02.554Z,56.24
2018-08-31T07:38:30.015Z,56.20
2018-08-31T07:40:57.479Z,56.29
2018-08-31T07:43:24.955Z,56.17
2018-08-31T07:45:52.526Z,56.24
2018-08-31T07:48:19.986Z,56.28
2018-08-31T07:50:47.658Z,55.95
2018-08-31T07:53:15.067Z,56.07
2018-08-31T07:55:42.507Z,55.65
2018-08-31T07:58:09.988Z,55.17
2018-08-31T08:00:37.432Z,54.95
2018-08-31T08:03:04.827Z,54.71
2018-08-31T08:05:32.322Z,54.41
2018-08-31T08:08:00.013Z,54.58
2018-08-31T08:10:27.484Z,54.47
2018-08-31T08:12:54.966Z,54.09
2018-08-31T08:15:22.414Z,53.22
2018-08-31T08:17:49.906Z,52.65
2018-08-31T08:20:17.444Z,52.68
2018-08-31T08:22:44.894Z,52.34
2018-08-31T08:25:12.362Z,51.88
2018-08-31T08:27:39.831Z,51.53
2018-08-31T08:30:07.325Z,51.27
2018-08-31T08:32:34.814Z,51.66
2018-08-31T08:35:02.401Z,51.40
2018-08-31T08:37:29.839Z,51.22
2018-08-31T08:39:57.276Z,50.59
2018-08-31T08:42:25.671Z,50.53
2018-08-31T08:44:53.174Z,50.91
2018-08-31T08:47:21.231Z,50.99
2018-08-31T08:49:48.692Z,51.07
2018-08-31T08:52:16.189Z,50.44
2018-08-31T08:54:44.159Z,49.76
2018-08-31T08:57:11.756Z,49.76
2018-08-31T08:59:39.444Z,48.70
2018-08-31T09:02:06.918Z,47.87
2018-08-31T09:04:34.361Z,47.39
2018-08-31T09:07:01.803Z,47.15
2018-08-31T09:09:29.428Z,46.52
2018-08-31T09:11:56.964Z,45.34
2018-08-31T09:14:24.310Z,42.68
2018-08-31T09:16:51.763Z,42.19
2018-08-31T09:19:19.266Z,42.54
2018-08-31T09:21:46.710Z,43.09
2018-08-31T09:24:14.147Z,43.44
2018-08-31T09:26:41.579Z,43.73
2018-08-31T09:29:09.017Z,44.76
2018-08-31T09:31:36.517Z,44.96
2018-08-31T09:34:03.918Z,44.84
2018-08-31T09:36:31.419Z,44.85
2018-08-31T09:38:58.826Z,44.70
2018-08-31T09:41:26.311Z,44.19
2018-08-31T09:43:53.829Z,44.41
2018-08-31T09:46:21.198Z,43.77
2018-08-31T09:48:48.675Z,43.87
2018-08-31T09:51:16.131Z,43.20
2018-08-31T09:53:43.699Z,42.77
2018-08-31T09:56:11.216Z,42.54
2018-08-31T09:58:38.656Z,42.05
2018-08-31T10:01:06.118Z,40.75
2018-08-31T10:03:33.721Z,39.95
2018-08-31T10:06:01.230Z,40.16
2018-08-31T10:08:28.793Z,39.32
2018-08-31T10:10:56.335Z,38.78
2018-08-31T10:13:23.799Z,38.21
2018-08-31T10:15:51.248Z,38.18
2018-08-31T10:18:18.714Z,37.94
2018-08-31T10:20:46.261Z,37.37
2018-08-31T10:23:13.263Z,36.27
2018-08-31T10:25:40.277Z,36.08
2018-08-31T10:28:07.767Z,36.27
2018-08-31T10:30:35.260Z,35.71
2018-08-31T10:33:02.761Z,35.54
2018-08-31T10:35:30.237Z,35.73
2018-08-31T10:37:57.666Z,35.70
2018-08-31T10:40:25.172Z,35.57
2018-08-31T10:42:52.606Z,35.79
2018-08-31T10:45:19.590Z,35.16
2018-08-31T10:47:47.020Z,35.22
2018-08-31T10:50:14.530Z,35.92
2018-08-31T10:52:42.072Z,35.38
2018-08-31T10:55:09.541Z,34.22
2018-08-31T10:57:37.302Z,34.06
2018-08-31T11:00:04.379Z,34.64
2018-08-31T11:02:32.064Z,34.33
2018-08-31T11:05:05.329Z,33.94
2018-08-31T11:07:32.830Z,33.36
2018-08-31T11:10:00.252Z,33.21
2018-08-31T11:12:27.295Z,32.62
2018-08-31T11:14:54.254Z,31.85
2018-08-31T11:17:21.663Z,30.97
2018-08-31T11:19:49.188Z,30.31
2018-08-31T11:22:16.662Z,30.25
2018-08-31T11:24:44.146Z,31.11
2018-08-31T11:27:11.661Z,32.18
2018-08-31T11:29:39.123Z,31.98
2018-08-31T11:32:06.563Z,31.78
2018-08-31T11:34:34.045Z,31.78
2018-08-31T11:37:01.541Z,31.47
2018-08-31T11:39:29.046Z,30.70
2018-08-31T11:41:56.444Z,31.61
2018-08-31T11:44:23.922Z,33.51
2018-08-31T11:46:51.347Z,34.74
2018-08-31T11:49:18.839Z,35.27
2018-08-31T11:51:46.317Z,35.43
2018-08-31T11:54:13.884Z,35.99
2018-08-31T11:56:41.341Z,36.45
2018-08-31T11:59:08.853Z,36.35
2018-08-31T12:01:36.343Z,36.50
2018-08-31T12:04:03.830Z,36.70
2018-08-31T12:06:31.241Z,36.59
2018-08-31T12:08:58.695Z,36.75
2018-08-31T12:11:26.172Z,36.91
2018-08-31T12:13:54.583Z,36.93
2018-08-31T12:16:22.083Z,36.87
2018-08-31T12:18:49.515Z,37.19
2018-08-31T12:21:17.191Z,36.54
2018-08-31T12:23:44.626Z,36.04
2018-08-31T12:26:12.138Z,35.67
2018-08-31T12:28:39.573Z,35.43
2018-08-31T12:31:07.091Z,35.10
2018-08-31T12:33:34.502Z,33.73
2018-08-31T12:36:01.975Z,32.37
2018-08-31T12:38:29.372Z,30.93
2018-08-31T12:40:56.937Z,30.15
2018-08-31T12:43:24.356Z,29.57
2018-08-31T12:45:51.768Z,30.99
2018-08-31T12:48:19.189Z,31.15
2018-08-31T12:50:46.636Z,31.62
2018-08-31T12:53:14.037Z,32.13
2018-08-31T12:55:41.694Z,32.50
2018-08-31T12:58:09.320Z,32.73
2018-08-31T13:00:36.788Z,32.96
2018-08-31T13:03:04.216Z,33.32
2018-08-31T13:05:31.694Z,32.99
2018-08-31T13:07:59.140Z,33.26
2018-08-31T13:10:26.635Z,33.46
2018-08-31T13:12:54.131Z,33.96
2018-08-31T13:15:21.569Z,34.77
2018-08-31T13:17:49.174Z,34.07
2018-08-31T13:20:16.612Z,33.65
2018-08-31T13:22:44.050Z,33.52
2018-08-31T13:25:11.563Z,33.57
2018-08-31T13:27:39.014Z,33.98
2018-08-31T13:30:06.655Z,34.76
2018-08-31T13:32:34.090Z,33.42
2018-08-31T13:35:01.650Z,33.38
2018-08-31T13:37:29.168Z,33.71
2018-08-31T13:39:56.621Z,35.04
2018-08-31T13:42:24.111Z,35.76
2018-08-31T13:44:51.585Z,35.86
2018-08-31T13:47:19.029Z,36.57
2018-08-31T13:49:46.473Z,37.12
2018-08-31T13:52:13.936Z,37.20
2018-08-31T13:54:41.370Z,37.03
2018-08-31T13:57:08.837Z,37.46
2018-08-31T13:59:36.314Z,37.90
2018-08-31T14:02:03.895Z,38.35
2018-08-31T14:04:31.363Z,38.45
2018-08-31T14:06:58.838Z,38.46
2018-08-31T14:09:26.349Z,38.23
2018-08-31T14:11:53.850Z,38.36
2018-08-31T14:14:21.258Z,38.54
2018-08-31T14:16:48.769Z,38.66
2018-08-31T14:19:16.634Z,38.78
2018-08-31T14:21:44.061Z,38.65
2018-08-31T14:24:11.654Z,38.67
2018-08-31T14:26:39.159Z,38.54
2018-08-31T14:29:06.602Z,38.75
2018-08-31T14:31:34.133Z,38.82
2018-08-31T14:34:01.628Z,38.71
2018-08-31T14:36:29.198Z,38.84
2018-08-31T14:38:56.574Z,38.74
2018-08-31T14:41:24.162Z,38.50
2018-08-31T14:43:51.586Z,38.52
2018-08-31T14:46:19.055Z,38.64
2018-08-31T14:48:46.512Z,38.79
2018-08-31T14:51:13.961Z,38.85
2018-08-31T14:53:41.376Z,39.22
2018-08-31T14:56:08.816Z,39.18
2018-08-31T14:58:36.305Z,38.96
2018-08-31T15:01:03.759Z,39.01
2018-08-31T15:03:31.196Z,38.82
2018-08-31T15:05:59.274Z,40.26
2018-08-31T15:08:26.845Z,40.96
2018-08-31T15:10:54.258Z,41.62
2018-08-31T15:13:21.778Z,42.26
2018-08-31T15:15:49.185Z,42.91
2018-08-31T15:18:16.656Z,42.51
2018-08-31T15:20:44.111Z,42.14
2018-08-31T15:23:11.703Z,42.14
2018-08-31T15:25:39.249Z,42.33
2018-08-31T15:28:07.372Z,42.29
2018-08-31T15:30:35.731Z,42.36
2018-08-31T15:33:03.191Z,42.52
2018-08-31T15:35:30.608Z,42.41
2018-08-31T15:37:58.074Z,42.41
2018-08-31T15:40:25.506Z,42.79
2018-08-31T15:42:53.093Z,43.31
2018-08-31T15:45:20.561Z,43.83
2018-08-31T15:47:48.012Z,43.98
2018-08-31T15:50:15.494Z,44.19
2018-08-31T15:52:43.012Z,43.84
2018-08-31T15:55:10.402Z,43.67
2018-08-31T15:57:38.460Z,43.19
2018-08-31T16:00:05.911Z,42.99
2018-08-31T16:02:33.447Z,43.40
2018-08-31T16:05:00.861Z,43.62
2018-08-31T16:07:28.358Z,43.69
2018-08-31T16:09:55.767Z,43.69
2018-08-31T16:12:23.236Z,44.20
2018-08-31T16:14:50.829Z,45.29
2018-08-31T16:17:18.282Z,45.17
2018-08-31T16:19:45.732Z,45.65
2018-08-31T16:22:13.197Z,46.07
2018-08-31T16:24:40.622Z,46.07
2018-08-31T16:27:08.072Z,45.80
2018-08-31T16:29:35.488Z,45.57
2018-08-31T16:32:02.891Z,45.67
2018-08-31T16:34:30.360Z,46.36
2018-08-31T16:36:57.866Z,46.95
2018-08-31T16:39:26.044Z,47.71
2018-08-31T16:41:53.492Z,48.93
2018-08-31T16:44:20.951Z,48.68
2018-08-31T16:46:48.448Z,48.70
2018-08-31T16:49:15.899Z,48.99
2018-08-31T16:51:43.320Z,48.60
2018-08-31T16:54:10.797Z,48.66
2018-08-31T16:56:38.272Z,48.85
2018-08-31T16:59:05.715Z,48.84
2018-08-31T17:01:33.162Z,49.01
2018-08-31T17:04:00.635Z,49.23
2018-08-31T17:06:28.128Z,49.46
2018-08-31T17:08:56.213Z,50.21
2018-08-31T17:11:25.664Z,50.67
2018-08-31T17:13:53.178Z,50.96
2018-08-31T17:16:20.672Z,51.11
2018-08-31T17:18:48.149Z,51.40
2018-08-31T17:21:15.589Z,51.87
2018-08-31T17:23:43.040Z,52.32
2018-08-31T17:26:10.492Z,52.27
2018-08-31T17:31:30.133Z,52.10
2018-08-31T17:37:10.770Z,53.38
2018-08-31T17:39:38.264Z,51.83
2018-08-31T17:42:05.716Z,51.65
2018-08-31T17:44:33.223Z,51.84
2018-08-31T17:47:00.693Z,52.01
2018-08-31T17:49:28.113Z,51.76
2018-08-31T17:51:55.508Z,51.66
2018-08-31T17:54:22.946Z,51.67
2018-08-31T17:56:50.405Z,52.33
2018-08-31T17:59:17.801Z,52.50
2018-08-31T18:01:45.256Z,52.72
2018-08-31T18:04:12.781Z,52.87
2018-08-31T18:06:40.172Z,53.13
2018-08-31T18:09:07.653Z,53.15
2018-08-31T18:11:35.148Z,53.22
2018-08-31T18:14:02.628Z,53.30
2018-08-31T18:16:30.122Z,52.66
2018-08-31T18:18:57.630Z,52.57
2018-08-31T18:21:25.231Z,52.74
2018-08-31T18:23:53.557Z,52.74
2018-08-31T18:26:20.976Z,52.90
2018-08-31T18:28:48.436Z,52.78
2018-08-31T18:31:15.974Z,53.10
2018-08-31T18:33:43.418Z,52.92
2018-08-31T18:36:11.041Z,53.14
2018-08-31T18:38:38.721Z,53.13
2018-08-31T18:41:06.185Z,53.01
2018-08-31T18:43:33.665Z,52.97
2018-08-31T18:46:01.139Z,53.38
2018-08-31T18:48:28.655Z,54.60
2018-08-31T18:50:56.119Z,54.64
2018-08-31T18:53:23.749Z,55.04
2018-08-31T18:55:51.150Z,55.68
2018-08-31T18:58:18.617Z,56.51
2018-08-31T19:00:46.054Z,57.39
2018-08-31T19:03:14.179Z,58.26
2018-08-31T19:05:42.507Z,58.99
2018-08-31T19:08:10.054Z,59.71
2018-08-31T19:10:37.546Z,59.73
2018-08-31T19:13:05.007Z,59.25
2018-08-31T19:15:32.520Z,59.56
2018-08-31T19:18:00.027Z,60.43
2018-08-31T19:20:27.517Z,61.48
2018-08-31T19:22:54.996Z,61.94
2018-08-31T19:25:22.514Z,61.71
2018-08-31T19:27:50.076Z,61.82
2018-08-31T19:30:17.482Z,62.30
2018-08-31T19:32:44.955Z,63.99
2018-08-31T19:35:12.420Z,66.60
2018-08-31T19:37:39.885Z,68.64
2018-08-31T19:40:07.455Z,70.01
2018-08-31T19:42:34.911Z,70.93
2018-08-31T19:45:02.337Z,72.02
2018-08-31T19:47:29.924Z,72.06
2018-08-31T19:49:57.359Z,72.64
2018-08-31T19:52:25.274Z,72.83
2018-08-31T19:54:52.670Z,73.37
2018-08-31T19:57:20.090Z,72.41
2018-08-31T19:59:47.542Z,72.13
2018-08-31T20:02:14.973Z,71.77
2018-08-31T20:04:42.464Z,71.68
2018-08-31T20:07:09.895Z,71.47
2018-08-31T20:09:37.355Z,71.00
2018-08-31T20:12:04.832Z,70.81
2018-08-31T20:14:33.032Z,70.80
2018-08-31T20:17:00.488Z,70.43
2018-08-31T20:19:27.956Z,70.84
2018-08-31T20:21:55.379Z,71.20
2018-08-31T20:24:22.823Z,70.91
2018-08-31T20:26:50.249Z,70.50
2018-08-31T20:29:17.803Z,70.19
2018-08-31T20:31:45.240Z,70.37
2018-08-31T20:34:12.642Z,70.23
2018-08-31T20:36:40.115Z,70.37
2018-08-31T20:39:07.520Z,70.52
2018-08-31T20:41:35.215Z,70.65
2018-08-31T20:44:02.676Z,70.33
2018-08-31T20:46:30.204Z,70.66
2018-08-31T20:48:57.577Z,70.44
2018-08-31T20:51:25.109Z,69.99
2018-08-31T20:53:52.544Z,70.06
2018-08-31T20:56:19.934Z,70.04
2018-08-31T20:58:47.341Z,69.99
2018-08-31T21:01:14.815Z,70.07
2018-08-31T21:03:42.428Z,70.27
2018-08-31T21:06:09.828Z,70.43
2018-08-31T21:08:37.459Z,70.56
2018-08-31T21:11:04.918Z,69.79
2018-08-31T21:13:32.443Z,68.92
2018-08-31T21:16:00.121Z,68.65
2018-08-31T21:18:27.560Z,68.08
2018-08-31T21:20:55.102Z,67.45
2018-08-31T21:23:22.725Z,66.69
2018-08-31T21:25:50.161Z,66.30
2018-08-31T21:28:17.748Z,66.25
2018-08-31T21:30:45.156Z,66.28
2018-08-31T21:33:12.643Z,66.11
2018-08-31T21:35:40.120Z,66.28
2018-08-31T21:38:07.558Z,66.02
2018-08-31T21:40:35.006Z,66.20
2018-08-31T21:43:02.537Z,66.05
2018-08-31T21:45:29.976Z,65.97
2018-08-31T21:47:57.398Z,65.58
2018-08-31T21:50:24.923Z,65.45
2018-08-31T21:52:52.518Z,65.58
2018-08-31T21:55:20.078Z,65.59
2018-08-31T21:57:47.535Z,65.66
2018-08-31T22:00:14.972Z,65.78
2018-08-31T22:02:42.386Z,66.04
2018-08-31T22:05:09.802Z,66.50
2018-08-31T22:07:37.230Z,66.23
2018-08-31T22:10:04.713Z,66.41
2018-08-31T22:12:32.134Z,67.11
2018-08-31T22:14:59.539Z,66.78
2018-08-31T22:17:27.009Z,66.65
2018-08-31T22:19:54.524Z,66.76
2018-08-31T22:22:21.967Z,66.93
2018-08-31T22:24:49.491Z,66.75
2018-08-31T22:27:16.968Z,66.93
2018-08-31T22:29:44.387Z,67.00
2018-08-31T22:32:11.827Z,67.10
2018-08-31T22:34:39.254Z,67.22
2018-08-31T22:37:06.709Z,66.83
2018-08-31T22:39:34.236Z,66.86
2018-08-31T22:42:02.576Z,67.18
2018-08-31T22:44:30.087Z,67.64
2018-08-31T22:46:57.534Z,67.86
2018-08-31T22:49:24.941Z,68.03
2018-08-31T22:51:52.401Z,68.01
2018-08-31T22:54:19.816Z,68.17
2018-08-31T22:56:47.291Z,67.81
2018-08-31T22:59:14.770Z,67.76
2018-08-31T23:01:42.332Z,68.01
2018-08-31T23:04:09.800Z,68.69
2018-08-31T23:06:37.319Z,68.54
2018-08-31T23:09:04.872Z,68.21
2018-08-31T23:11:32.367Z,68.03
2018-08-31T23:13:59.895Z,67.63
2018-08-31T23:16:27.327Z,67.07
2018-08-31T23:18:54.738Z,66.61
2018-08-31T23:21:22.872Z,66.86
2018-08-31T23:23:50.315Z,66.74
2018-08-31T23:26:17.702Z,66.81
2018-08-31T23:28:45.145Z,66.82
2018-08-31T23:31:12.580Z,67.12
2018-08-31T23:33:40.028Z,67.27
2018-08-31T23:36:07.532Z,67.09
2018-08-31T23:38:35.047Z,66.30
2018-08-31T23:41:02.485Z,66.04
2018-08-31T23:43:29.931Z,65.78
2018-08-31T23:45:58.077Z,65.83
2018-08-31T23:48:25.524Z,66.38
2018-08-31T23:50:53.074Z,66.43
2018-08-31T23:53:20.498Z,66.46
2018-08-31T23:55:47.918Z,66.48
2018-08-31T23:58:15.317Z,66.23
